createdAt,value
2019-04-20T00:00:58.508Z,3.60
2019-04-20T00:03:35.604Z,3.47
2019-04-20T00:06:01.481Z,3.93
2019-04-20T00:08:35.977Z,4.03
2019-04-20T00:11:10.724Z,3.63
2019-04-20T00:13:45.400Z,3.97
2019-04-20T00:16:08.209Z,3.33
2019-04-20T00:18:43.192Z,3.77
2019-04-20T00:21:27.375Z,3.60
2019-04-20T00:24:11.490Z,4.50
2019-04-20T00:27:04.758Z,3.80
2019-04-20T00:29:25.107Z,3.60
2019-04-20T00:31:49.201Z,3.80
2019-04-20T00:34:18.464Z,3.70
2019-04-20T00:36:43.470Z,4.50
2019-04-20T00:39:16.505Z,4.60
2019-04-20T00:41:51.506Z,4.30
2019-04-20T00:44:23.328Z,4.33
2019-04-20T00:47:03.170Z,4.40
2019-04-20T00:49:34.903Z,4.40
2019-04-20T00:52:20.082Z,4.13
2019-04-20T00:54:24.356Z,4.13
2019-04-20T00:57:07.809Z,4.80
2019-04-20T00:59:44.657Z,4.50
2019-04-20T01:02:13.145Z,4.83
2019-04-20T01:04:47.565Z,4.73
2019-04-20T01:07:37.368Z,4.53
2019-04-20T01:10:21.648Z,4.10
2019-04-20T01:12:58.854Z,4.10
2019-04-20T01:15:32.283Z,3.80
2019-04-20T01:17:54.906Z,4.93
2019-04-20T01:20:26.380Z,4.30
2019-04-20T01:23:01.937Z,3.87
2019-04-20T01:25:33.820Z,4.23
2019-04-20T01:28:11.900Z,4.80
2019-04-20T01:30:37.718Z,4.63
2019-04-20T01:33:18.814Z,4.10
2019-04-20T01:35:48.907Z,4.60
2019-04-20T01:38:27.927Z,4.60
2019-04-20T01:40:38.687Z,4.60
2019-04-20T01:43:09.988Z,4.20
2019-04-20T01:45:42.740Z,4.00
2019-04-20T01:48:14.183Z,4.03
2019-04-20T01:50:51.847Z,5.10
2019-04-20T01:53:32.404Z,5.23
2019-04-20T01:56:08.540Z,4.60
2019-04-20T01:58:52.148Z,4.40
2019-04-20T02:01:35.461Z,5.73
2019-04-20T02:04:20.393Z,4.67
2019-04-20T02:06:50.636Z,4.70
2019-04-20T02:09:22.208Z,4.63
2019-04-20T02:11:51.819Z,4.70
2019-04-20T02:14:28.637Z,5.33
2019-04-20T02:17:03.245Z,4.60
2019-04-20T02:19:37.703Z,4.83
2019-04-20T02:22:07.592Z,5.43
2019-04-20T02:24:27.829Z,4.93
2019-04-20T02:26:58.259Z,5.33
2019-04-20T02:29:50.945Z,5.90
2019-04-20T02:35:18.651Z,4.77
2019-04-20T02:43:26.749Z,4.77
2019-04-20T02:45:42.273Z,5.47
2019-04-20T02:48:08.636Z,4.67
2019-04-20T02:50:44.256Z,4.80
2019-04-20T02:53:20.444Z,5.90
2019-04-20T02:56:00.180Z,4.77
2019-04-20T03:00:45.704Z,6.50
2019-04-20T03:03:07.785Z,5.73
2019-04-20T03:05:37.112Z,5.90
2019-04-20T03:08:13.714Z,5.07
2019-04-20T03:10:53.865Z,5.20
2019-04-20T03:13:18.710Z,6.50
2019-04-20T03:15:56.441Z,6.10
2019-04-20T03:18:25.249Z,5.53
2019-04-20T03:20:57.762Z,5.37
2019-04-20T03:26:06.055Z,5.90
2019-04-20T03:28:53.913Z,6.00
2019-04-20T03:31:58.575Z,5.97
2019-04-20T03:36:41.467Z,5.90
2019-04-20T03:39:03.269Z,5.37
2019-04-20T03:41:25.499Z,5.67
2019-04-20T03:43:47.703Z,6.17
2019-04-20T03:46:25.760Z,6.53
2019-04-20T03:49:07.167Z,5.70
2019-04-20T03:51:45.356Z,6.77
2019-04-20T03:54:25.134Z,6.63
2019-04-20T03:57:38.346Z,6.77
2019-04-20T04:00:16.261Z,6.10
2019-04-20T04:03:09.330Z,6.60
2019-04-20T04:05:31.287Z,5.97
2019-04-20T04:07:58.169Z,5.90
2019-04-20T04:10:30.465Z,5.80
2019-04-20T04:13:11.821Z,5.70
2019-04-20T04:15:48.746Z,6.30
2019-04-20T04:18:22.985Z,6.50
2019-04-20T04:20:57.293Z,5.50
2019-04-20T04:23:36.702Z,5.83
2019-04-20T04:26:08.595Z,6.20
2019-04-20T04:28:42.351Z,6.13
2019-04-20T04:31:16.309Z,6.50
2019-04-20T04:36:19.447Z,6.60
2019-04-20T04:38:55.157Z,6.73
2019-04-20T04:41:36.342Z,7.10
2019-04-20T04:43:55.216Z,6.93
2019-04-20T04:46:08.325Z,7.00
2019-04-20T04:48:43.823Z,7.30
2019-04-20T04:51:19.602Z,7.40
2019-04-20T04:53:50.846Z,7.07
2019-04-20T04:56:18.371Z,6.50
2019-04-20T04:58:46.765Z,6.10
2019-04-20T05:01:24.850Z,7.20
2019-04-20T05:04:14.971Z,7.20
2019-04-20T05:06:37.806Z,6.50
2019-04-20T05:09:00.379Z,6.20
2019-04-20T05:11:28.016Z,7.17
2019-04-20T05:14:03.330Z,7.00
2019-04-20T05:16:46.269Z,7.00
2019-04-20T05:19:23.471Z,8.13
2019-04-20T05:22:08.227Z,7.23
2019-04-20T05:24:51.789Z,7.40
2019-04-20T05:27:43.983Z,8.03
2019-04-20T05:29:50.913Z,6.33
2019-04-20T05:32:33.743Z,7.10
2019-04-20T05:35:18.002Z,8.50
2019-04-20T05:37:48.905Z,7.53
2019-04-20T05:40:17.669Z,6.40
2019-04-20T05:42:54.416Z,8.17
2019-04-20T05:45:22.358Z,7.70
2019-04-20T05:47:52.475Z,7.30
2019-04-20T05:50:27.634Z,6.80
2019-04-20T05:53:01.693Z,6.80
2019-04-20T05:55:33.059Z,6.90
2019-04-20T05:58:08.926Z,6.97
2019-04-20T06:00:40.207Z,6.10
2019-04-20T06:03:17.023Z,6.70
2019-04-20T06:05:58.262Z,6.30
2019-04-20T06:08:34.278Z,7.27
2019-04-20T06:10:55.093Z,6.80
2019-04-20T06:13:45.242Z,5.67
2019-04-20T06:16:50.028Z,6.87
2019-04-20T06:19:29.817Z,6.23
2019-04-20T06:22:21.672Z,6.30
2019-04-20T06:25:23.630Z,5.87
2019-04-20T06:27:46.030Z,6.20
2019-04-20T06:30:11.051Z,6.00
2019-04-20T06:33:37.381Z,5.87
2019-04-20T06:36:07.465Z,6.80
2019-04-20T06:38:43.214Z,5.80
2019-04-20T06:43:35.008Z,5.30
2019-04-20T06:46:03.383Z,6.03
2019-04-20T06:48:34.953Z,6.03
2019-04-20T06:50:57.138Z,6.60
2019-04-20T06:53:47.057Z,6.70
2019-04-20T06:56:23.494Z,6.47
2019-04-20T06:58:59.634Z,6.30
2019-04-20T07:01:27.736Z,6.80
2019-04-20T07:04:10.817Z,5.87
2019-04-20T07:09:09.587Z,6.53
2019-04-20T07:11:35.479Z,5.73
2019-04-20T07:13:54.426Z,5.17
2019-04-20T07:16:44.779Z,5.80
2019-04-20T07:19:20.055Z,5.43
2019-04-20T07:22:19.719Z,5.00
2019-04-20T07:24:50.833Z,4.77
2019-04-20T07:27:12.255Z,5.80
2019-04-20T07:29:52.280Z,4.80
2019-04-20T07:32:09.942Z,4.30
2019-04-20T07:34:53.943Z,4.70
2019-04-20T07:40:08.558Z,5.20
2019-04-20T07:42:52.136Z,5.00
2019-04-20T07:45:07.217Z,5.00
2019-04-20T07:50:09.064Z,4.60
2019-04-20T07:52:36.361Z,4.60
2019-04-20T07:57:46.095Z,4.53
2019-04-20T08:00:21.384Z,4.63
2019-04-20T08:03:13.111Z,4.60
2019-04-20T08:05:39.268Z,4.60
2019-04-20T08:08:21.013Z,4.90
2019-04-20T08:10:47.378Z,5.30
2019-04-20T08:13:32.945Z,5.50
2019-04-20T08:15:58.361Z,5.77
2019-04-20T08:18:32.269Z,6.03
2019-04-20T08:21:17.943Z,5.47
2019-04-20T08:23:32.064Z,5.33
2019-04-20T08:25:54.346Z,6.43
2019-04-20T08:28:25.040Z,5.63
2019-04-20T08:31:24.576Z,5.67
2019-04-20T08:36:47.893Z,5.50
2019-04-20T08:41:50.125Z,6.00
2019-04-20T08:44:41.555Z,5.60
2019-04-20T08:47:00.231Z,5.53
2019-04-20T08:49:32.030Z,5.30
2019-04-20T08:52:01.705Z,5.90
2019-04-20T08:54:22.078Z,5.40
2019-04-20T08:56:46.097Z,6.53
2019-04-20T08:59:11.663Z,6.00
2019-04-20T09:01:42.658Z,6.00
2019-04-20T09:04:19.929Z,6.43
2019-04-20T09:06:58.817Z,6.27
2019-04-20T09:09:44.290Z,7.10
2019-04-20T09:12:06.223Z,5.47
2019-04-20T09:14:21.438Z,7.07
2019-04-20T09:17:07.102Z,6.97
2019-04-20T09:19:41.639Z,6.67
2019-04-20T09:22:28.411Z,6.70
2019-04-20T09:25:25.407Z,6.03
2019-04-20T09:27:32.005Z,5.60
2019-04-20T09:30:09.123Z,6.40
2019-04-20T09:32:45.306Z,5.87
2019-04-20T09:35:25.426Z,6.40
2019-04-20T09:37:59.893Z,6.40
2019-04-20T09:40:44.895Z,5.23
2019-04-20T09:43:04.855Z,5.40
2019-04-20T09:45:49.942Z,5.10
2019-04-20T09:48:23.971Z,4.73
2019-04-20T09:51:02.341Z,4.80
2019-04-20T09:53:31.655Z,5.00
2019-04-20T09:56:07.583Z,5.17
2019-04-20T09:58:38.126Z,6.33
2019-04-20T10:01:12.385Z,5.90
2019-04-20T10:03:29.059Z,5.00
2019-04-20T10:05:59.385Z,5.87
2019-04-20T10:08:34.059Z,4.57
2019-04-20T10:11:03.531Z,6.43
2019-04-20T10:13:34.358Z,5.67
2019-04-20T10:16:05.859Z,5.37
2019-04-20T10:18:41.368Z,5.80
2019-04-20T10:21:07.798Z,4.70
2019-04-20T10:23:38.763Z,5.10
2019-04-20T10:26:08.988Z,5.97
2019-04-20T10:28:39.435Z,5.50
2019-04-20T10:31:10.689Z,6.33
2019-04-20T10:33:41.751Z,6.50
2019-04-20T10:36:23.623Z,5.53
2019-04-20T10:38:54.777Z,6.70
2019-04-20T10:41:35.912Z,6.67
2019-04-20T10:43:56.792Z,5.80
2019-04-20T10:46:26.968Z,6.43
2019-04-20T10:49:01.239Z,5.50
2019-04-20T10:51:29.236Z,4.43
2019-04-20T10:54:00.328Z,6.20
2019-04-20T10:56:31.650Z,5.33
2019-04-20T10:59:01.529Z,5.67
2019-04-20T11:01:31.645Z,6.27
2019-04-20T11:04:02.870Z,6.10
2019-04-20T11:06:32.817Z,7.10
2019-04-20T11:09:04.656Z,5.50
2019-04-20T11:11:35.886Z,6.30
2019-04-20T11:14:14.263Z,5.50
2019-04-20T11:16:38.456Z,5.30
2019-04-20T11:19:09.449Z,6.13
2019-04-20T11:21:40.694Z,5.20
2019-04-20T11:24:12.143Z,5.07
2019-04-20T11:26:43.902Z,4.50
2019-04-20T11:29:13.857Z,4.90
2019-04-20T11:31:47.717Z,5.27
2019-04-20T11:34:24.895Z,5.80
2019-04-20T11:36:48.817Z,4.77
2019-04-20T11:39:18.884Z,3.90
2019-04-20T11:41:49.745Z,5.20
2019-04-20T11:44:20.047Z,5.97
2019-04-20T11:46:50.366Z,6.30
2019-04-20T11:49:21.520Z,5.33
2019-04-20T11:51:51.822Z,5.53
2019-04-20T11:54:22.091Z,4.87
2019-04-20T11:56:53.189Z,5.13
2019-04-20T11:59:23.181Z,4.93
2019-04-20T12:02:03.683Z,4.13
2019-04-20T12:04:47.192Z,5.63
2019-04-20T12:07:13.018Z,4.90
2019-04-20T12:09:43.790Z,6.07
2019-04-20T12:12:24.612Z,4.43
2019-04-20T12:14:46.444Z,5.00
2019-04-20T12:17:17.668Z,4.80
2019-04-20T12:19:47.976Z,4.97
2019-04-20T12:22:18.015Z,5.77
2019-04-20T12:24:47.941Z,5.03
2019-04-20T12:27:18.655Z,5.00
2019-04-20T12:29:49.862Z,5.03
2019-04-20T12:32:20.016Z,4.97
2019-04-20T12:34:49.800Z,5.10
2019-04-20T12:37:20.878Z,5.00
2019-04-20T12:39:51.174Z,4.97
2019-04-20T12:42:21.295Z,6.30
2019-04-20T12:44:51.822Z,5.40
2019-04-20T12:47:21.978Z,6.20
2019-04-20T12:49:51.776Z,5.43
2019-04-20T12:52:22.685Z,5.33
2019-04-20T12:54:54.478Z,6.00
2019-04-20T12:57:25.070Z,5.47
2019-04-20T12:59:54.965Z,5.13
2019-04-20T13:02:25.183Z,5.10
2019-04-20T13:04:55.328Z,5.00
2019-04-20T13:07:26.886Z,4.90
2019-04-20T13:09:58.784Z,5.10
2019-04-20T13:12:42.592Z,5.20
2019-04-20T13:15:29.049Z,4.90
2019-04-20T13:17:59.094Z,4.47
2019-04-20T13:20:29.925Z,5.27
2019-04-20T13:23:02.627Z,5.37
2019-04-20T13:25:32.627Z,4.37
2019-04-20T13:28:03.220Z,5.30
2019-04-20T13:30:33.090Z,4.90
2019-04-20T13:33:03.983Z,4.00
2019-04-20T13:35:34.261Z,4.70
2019-04-20T13:38:04.600Z,4.60
2019-04-20T13:40:35.616Z,4.63
2019-04-20T13:43:05.944Z,4.33
2019-04-20T13:45:37.065Z,4.40
2019-04-20T13:48:08.787Z,5.13
2019-04-20T13:50:40.066Z,4.73
2019-04-20T13:53:11.600Z,5.17
2019-04-20T13:55:41.430Z,4.50
2019-04-20T13:58:29.808Z,4.13
2019-04-20T14:01:12.591Z,5.03
2019-04-20T14:03:42.909Z,4.70
2019-04-20T14:06:12.719Z,5.33
2019-04-20T14:08:43.378Z,4.50
2019-04-20T14:11:13.454Z,4.97
2019-04-20T14:13:48.985Z,5.40
2019-04-20T14:16:14.625Z,5.80
2019-04-20T14:18:45.029Z,4.60
2019-04-20T14:21:16.257Z,3.97
2019-04-20T14:23:46.534Z,4.53
2019-04-20T14:26:16.878Z,3.93
2019-04-20T14:28:47.075Z,5.00
2019-04-20T14:31:16.805Z,4.40
2019-04-20T14:33:47.002Z,4.60
2019-04-20T14:36:16.981Z,5.07
2019-04-20T14:38:48.673Z,4.40
2019-04-20T14:41:20.152Z,3.70
2019-04-20T14:43:51.228Z,4.10
2019-04-20T14:46:21.093Z,4.30
2019-04-20T14:48:52.439Z,4.33
2019-04-20T14:51:23.763Z,4.03
2019-04-20T14:53:53.819Z,3.80
2019-04-20T14:56:23.698Z,4.10
2019-04-20T14:59:01.860Z,4.17
2019-04-20T15:02:00.778Z,4.20
2019-04-20T15:04:32.011Z,3.63
2019-04-20T15:07:02.721Z,3.67
2019-04-20T15:09:36.889Z,3.53
2019-04-20T15:12:06.802Z,3.70
2019-04-20T15:14:37.093Z,3.57
2019-04-20T15:17:08.817Z,3.60
2019-04-20T15:19:57.622Z,4.10
2019-04-20T15:22:43.437Z,3.00
2019-04-20T15:25:13.772Z,3.17
2019-04-20T15:27:46.132Z,3.33
2019-04-20T15:30:16.367Z,4.10
2019-04-20T15:32:47.099Z,2.90
2019-04-20T15:35:19.143Z,3.10
2019-04-20T15:37:49.174Z,3.33
2019-04-20T15:40:19.589Z,3.60
2019-04-20T15:42:59.007Z,3.30
2019-04-20T15:45:22.898Z,3.10
2019-04-20T15:47:54.228Z,3.10
2019-04-20T15:50:25.562Z,4.07
2019-04-20T15:52:58.414Z,3.53
2019-04-20T15:55:33.014Z,3.00
2019-04-20T15:58:04.227Z,3.27
2019-04-20T16:00:32.297Z,4.10
2019-04-20T16:03:09.531Z,3.93
2019-04-20T16:05:45.041Z,3.30
2019-04-20T16:08:30.239Z,3.13
2019-04-20T16:11:01.405Z,3.40
2019-04-20T16:13:37.253Z,3.27
2019-04-20T16:16:03.773Z,3.80
2019-04-20T16:18:34.932Z,3.30
2019-04-20T16:21:11.675Z,3.20
2019-04-20T16:24:01.846Z,3.73
2019-04-20T16:26:39.897Z,3.37
2019-04-20T16:29:11.204Z,3.40
2019-04-20T16:31:43.942Z,3.47
2019-04-20T16:34:14.227Z,3.80
2019-04-20T16:36:44.566Z,3.00
2019-04-20T16:39:16.406Z,3.40
2019-04-20T16:41:46.519Z,3.37
2019-04-20T16:44:17.546Z,2.80
2019-04-20T16:46:48.049Z,3.20
2019-04-20T16:49:19.294Z,3.20
2019-04-20T16:51:49.404Z,3.20
2019-04-20T16:54:19.697Z,3.20
2019-04-20T16:56:50.729Z,3.07
2019-04-20T16:59:22.521Z,3.17
2019-04-20T17:01:54.006Z,3.33
2019-04-20T17:04:25.116Z,3.40
2019-04-20T17:07:14.262Z,3.20
2019-04-20T17:09:45.996Z,3.00
2019-04-20T17:12:17.771Z,3.33
2019-04-20T17:14:47.746Z,3.00
2019-04-20T17:17:18.162Z,2.80
2019-04-20T17:19:49.303Z,2.80
2019-04-20T17:22:19.296Z,2.57
2019-04-20T17:24:49.473Z,2.50
2019-04-20T17:27:41.327Z,2.60
2019-04-20T17:30:29.437Z,2.90
2019-04-20T17:33:04.189Z,2.40
2019-04-20T17:35:47.198Z,2.80
2019-04-20T17:38:08.830Z,2.53
2019-04-20T17:41:01.247Z,2.93
2019-04-20T17:43:23.259Z,2.63
2019-04-20T17:45:55.726Z,2.90
2019-04-20T17:48:31.539Z,2.10
2019-04-20T17:51:12.295Z,2.90
2019-04-20T17:53:54.601Z,2.50
2019-04-20T17:56:20.311Z,2.63
2019-04-20T17:58:56.353Z,2.60
2019-04-20T18:02:07.763Z,2.23
2019-04-20T18:04:57.484Z,2.40
2019-04-20T18:07:29.133Z,2.50
2019-04-20T18:09:58.839Z,3.20
2019-04-20T18:12:23.267Z,2.93
2019-04-20T18:14:58.450Z,3.07
2019-04-20T18:17:55.063Z,2.60
2019-04-20T18:20:20.857Z,2.77
2019-04-20T18:22:56.462Z,2.33
2019-04-20T18:25:53.273Z,3.03
2019-04-20T18:28:13.755Z,3.60
2019-04-20T18:30:59.002Z,3.20
2019-04-20T18:33:33.028Z,2.63
2019-04-20T18:36:00.470Z,2.67
2019-04-20T18:38:39.351Z,2.63
2019-04-20T18:41:09.313Z,2.57
2019-04-20T18:43:45.816Z,3.47
2019-04-20T18:46:28.071Z,2.50
2019-04-20T18:49:06.975Z,2.67
2019-04-20T18:51:19.707Z,2.87
2019-04-20T18:53:53.482Z,2.33
2019-04-20T18:56:32.258Z,2.90
2019-04-20T18:58:59.002Z,2.60
2019-04-20T19:01:34.929Z,3.10
2019-04-20T19:04:03.878Z,2.50
2019-04-20T19:06:35.962Z,2.50
2019-04-20T19:09:14.128Z,2.70
2019-04-20T19:11:49.552Z,2.80
2019-04-20T19:14:40.800Z,2.67
2019-04-20T19:17:40.968Z,2.47
2019-04-20T19:20:02.330Z,2.50
2019-04-20T19:22:36.514Z,3.00
2019-04-20T19:25:09.905Z,3.50
2019-04-20T19:27:48.447Z,3.10
2019-04-20T19:30:24.574Z,2.73
2019-04-20T19:33:04.818Z,2.60
2019-04-20T19:35:33.911Z,2.63
2019-04-20T19:38:09.378Z,2.90
2019-04-20T19:40:45.733Z,2.77
2019-04-20T19:43:15.659Z,2.73
2019-04-20T19:46:16.607Z,2.87
2019-04-20T19:48:30.330Z,2.43
2019-04-20T19:51:10.148Z,2.90
2019-04-20T19:53:51.030Z,2.60
2019-04-20T19:56:08.201Z,3.00
2019-04-20T19:58:49.708Z,2.47
2019-04-20T20:01:06.783Z,2.90
2019-04-20T20:03:41.673Z,2.70
2019-04-20T20:06:23.767Z,3.00
2019-04-20T20:08:53.176Z,3.90
2019-04-20T20:11:26.491Z,3.20
2019-04-20T20:13:53.521Z,2.83
2019-04-20T20:16:28.009Z,3.87
2019-04-20T20:19:03.903Z,4.87
2019-04-20T20:21:35.238Z,4.13
2019-04-20T20:23:56.333Z,3.60
2019-04-20T20:26:33.499Z,3.87
2019-04-20T20:29:09.258Z,2.60
2019-04-20T20:31:48.583Z,3.13
2019-04-20T20:34:22.191Z,3.00
2019-04-20T20:36:53.898Z,3.70
2019-04-20T20:39:27.780Z,3.70
2019-04-20T20:42:10.889Z,3.50
2019-04-20T20:44:42.841Z,3.93
2019-04-20T20:47:31.706Z,2.97
2019-04-20T20:50:03.939Z,3.53
2019-04-20T20:52:27.330Z,3.63
2019-04-20T20:54:56.470Z,3.20
2019-04-20T20:57:24.807Z,2.63
2019-04-20T21:00:00.810Z,3.60
2019-04-20T21:02:40.163Z,3.50
2019-04-20T21:04:59.606Z,3.37
2019-04-20T21:07:34.417Z,3.43
2019-04-20T21:10:06.261Z,3.23
2019-04-20T21:12:45.397Z,3.30
2019-04-20T21:15:16.335Z,4.17
2019-04-20T21:18:10.634Z,3.40
2019-04-20T21:20:31.276Z,3.90
2019-04-20T21:23:02.411Z,2.90
2019-04-20T21:25:33.598Z,3.90
2019-04-20T21:27:57.038Z,4.13
2019-04-20T21:30:34.966Z,3.80
2019-04-20T21:33:03.423Z,4.03
2019-04-20T21:35:39.065Z,3.83
2019-04-20T21:38:08.379Z,4.30
2019-04-20T21:40:44.992Z,4.37
2019-04-20T21:43:14.587Z,4.83
2019-04-20T21:45:56.370Z,5.73
2019-04-20T21:48:39.272Z,4.70
2019-04-20T21:51:10.225Z,5.20
2019-04-20T21:53:31.763Z,5.33
2019-04-20T21:55:59.814Z,5.37
2019-04-20T21:58:35.203Z,5.30
2019-04-20T22:01:12.505Z,5.70
2019-04-20T22:03:36.352Z,5.53
2019-04-20T22:06:08.891Z,5.30
2019-04-20T22:08:46.828Z,5.60
2019-04-20T22:11:15.784Z,5.43
2019-04-20T22:13:47.754Z,5.07
2019-04-20T22:16:18.954Z,4.93
2019-04-20T22:18:58.126Z,4.07
2019-04-20T22:21:26.491Z,4.20
2019-04-20T22:24:07.960Z,4.73
2019-04-20T22:26:32.657Z,5.20
2019-04-20T22:28:58.226Z,4.23
2019-04-20T22:31:29.790Z,3.90
2019-04-20T22:34:06.396Z,4.13
2019-04-20T22:36:38.607Z,4.80
2019-04-20T22:39:09.577Z,4.70
2019-04-20T22:41:53.704Z,4.00
2019-04-20T22:44:21.428Z,4.23
2019-04-20T22:46:50.265Z,4.23
2019-04-20T22:49:35.933Z,3.60
2019-04-20T22:52:11.842Z,3.60
2019-04-20T22:54:46.677Z,3.43
2019-04-20T22:57:10.697Z,3.53
2019-04-20T22:59:41.776Z,3.70
2019-04-20T23:02:07.936Z,3.40
2019-04-20T23:04:37.507Z,4.30
2019-04-20T23:07:08.541Z,3.60
2019-04-20T23:09:46.855Z,3.30
2019-04-20T23:12:15.723Z,3.33
2019-04-20T23:14:42.418Z,3.80
2019-04-20T23:17:18.369Z,4.00
2019-04-20T23:19:52.124Z,3.17
2019-04-20T23:22:19.207Z,3.17
2019-04-20T23:24:49.277Z,4.20
2019-04-20T23:27:24.552Z,3.77
2019-04-20T23:29:51.238Z,3.60
2019-04-20T23:32:23.455Z,3.47
2019-04-20T23:34:57.770Z,3.17
2019-04-20T23:37:29.901Z,4.17
2019-04-20T23:39:56.540Z,3.73
2019-04-20T23:42:38.527Z,3.80
2019-04-20T23:45:45.663Z,4.20
2019-04-20T23:48:41.261Z,3.90
2019-04-20T23:51:29.948Z,3.87
2019-04-20T23:53:56.091Z,4.00
2019-04-20T23:56:18.763Z,3.97
2019-04-20T23:58:52.931Z,3.63
